LFOTLFOM

Guest
Details From LFOT - Tours Val De Loire Ab
To LFOM - Lessay
Flight Number -
Tags Routegen Generated
Created
Modified
Stats Distance 147 nm / 271 km
Max Altitude 600 ft / 183 m
Waypoints 12
Social Downloads 13
Likes 0
Share

Download

Looking for another format? Having issues loading an existing format? Contact us
Advertisement - Login to hide

Notes

Departing runway 1 LFOT. Arriving runway 6 LFOM.

Route

LFOT +47.51_+000.76 +47.57_+000.75 +47.62_+000.72 +47.66_+000.66 +48.25_+000.01 +49.16_-001.09 +49.20_-001.15 +49.23_-001.22 +49.25_-001.31 +49.24_-001.40 LFOM

ID Type Via Altitude (ft/m) Position (lat/lon) Dist (leg/tot) Name
O LFOT APT - 0 / 0 47.44265 / 0.73180 - / 0 nm
+47.51_+000.76 LATLON - 600 / 183 47.51248 / 0.75993 4 / 4 nm
+47.57_+000.75 LATLON - 600 / 183 47.57017 / 0.75278 3 / 7 nm
+47.62_+000.72 LATLON - 600 / 183 47.62273 / 0.71679 3 / 11 nm
+47.66_+000.66 LATLON - 600 / 183 47.66380 / 0.65624 3 / 14 nm
+48.25_+000.01 LATLON - 600 / 183 48.24665 / -0.01350 44 / 58 nm
+49.16_-001.09 LATLON - 600 / 183 49.15570 / -1.09441 69 / 128 nm
+49.20_-001.15 LATLON - 600 / 183 49.20195 / -1.14769 3 / 131 nm
+49.23_-001.22 LATLON - 600 / 183 49.23350 / -1.22200 3 / 135 nm
+49.25_-001.31 LATLON - 600 / 183 49.24655 / -1.30839 3 / 138 nm
+49.24_-001.40 LATLON - 600 / 183 49.23952 / -1.39641 3 / 142 nm
O LFOM APT - 0 / 0 49.20670 / -1.49517 4 / 146 nm

Altitude Profile

Advertisement - Login to hide

LFOT

Details ICAO LFOT (TUF)
Name Tours Val de Loire
Region France
Timezone Europe/Paris (UTC+2.0)
Stats Elevation 355 ft / 108 m (AMSL)
Location 47.432200° 0.727609°
Runways 1
Magnetic Variation 0.629° E

METAR

LFOT 120530Z AUTO 33004KT CAVOK 00/M01 Q1028 NOSIG

Decode

TAF

TAF LFOT 112300Z 1200/1224 34007KT CAVOK= TAF LFRD 112300Z 1200/1224 VRB03KT 9999 FEW030 TEMPO 1202/1206 2000 BR BECMG 1210/1212 31010KT BECMG 1220/1222 VRB03KT

Decode

Departure Runways

ID Width Length Bearing (true/mag) Surface Threshold Overrun Markings Lighting
02 148 ft / 45 m 7,895 ft / 2,406 m 15.23° / 14.60° CONCRETE 0 ft / 0 m 961 ft / 293 m PREC-APP CENTERLINE EDGE THRESHOLD REIL-OMNI
20 148 ft / 45 m 7,895 ft / 2,406 m 195.24° / 194.61° CONCRETE 0 ft / 0 m 955 ft / 291 m PREC-APP CENTERLINE EDGE THRESHOLD ALSF-I TDZ REIL-OMNI

LFOM

Details ICAO LFOM
Name Lessay
Region France
Timezone Europe/Paris (UTC+2.0)
Stats Elevation 91 ft / 28 m (AMSL)
Location 49.203800° -1.504660°
Runways 1
Magnetic Variation 0.204° W

METAR

Not found

TAF

Not found

Destination Runways

ID Width Length Bearing (true/mag) Surface Threshold Overrun Markings Lighting
07 289 ft / 88 m 4,102 ft / 1,250 m 63.45° / 63.65° UNKNOWN 0 ft / 0 m 0 ft / 0 m NONE
25 289 ft / 88 m 4,102 ft / 1,250 m 243.46° / 243.66° UNKNOWN 0 ft / 0 m 0 ft / 0 m NONE